sensor_id;sensor_type;location;lat;lon;timestamp;temperature;humidity
10062;DHT22;5070;52.382;5.270;2024-01-15T00:00:55;19.20;51.60
10062;DHT22;5070;52.382;5.270;2024-01-15T00:03:24;19.20;51.60
10062;DHT22;5070;52.382;5.270;2024-01-15T00:05:52;19.20;51.60
10062;DHT22;5070;52.382;5.270;2024-01-15T00:08:21;19.20;51.60
10062;DHT22;5070;52.382;5.270;2024-01-15T00:10:49;19.10;51.50
10062;DHT22;5070;52.382;5.270;2024-01-15T00:13:17;19.10;51.50
10062;DHT22;5070;52.382;5.270;2024-01-15T00:15:45;19.10;51.50
10062;DHT22;5070;52.382;5.270;2024-01-15T00:18:13;19.10;51.60
10062;DHT22;5070;52.382;5.270;2024-01-15T00:20:41;19.00;51.50
10062;DHT22;5070;52.382;5.270;2024-01-15T00:23:09;19.00;51.50
10062;DHT22;5070;52.382;5.270;2024-01-15T00:25:38;19.00;51.50
10062;DHT22;5070;52.382;5.270;2024-01-15T00:28:06;19.00;51.40
10062;DHT22;5070;52.382;5.270;2024-01-15T00:30:34;19.00;51.40
10062;DHT22;5070;52.382;5.270;2024-01-15T00:33:03;19.00;51.40
10062;DHT22;5070;52.382;5.270;2024-01-15T00:35:31;18.90;51.30
10062;DHT22;5070;52.382;5.270;2024-01-15T00:37:59;18.90;51.30
10062;DHT22;5070;52.382;5.270;2024-01-15T00:40:27;18.90;51.30
10062;DHT22;5070;52.382;5.270;2024-01-15T00:42:57;18.90;51.30
10062;DHT22;5070;52.382;5.270;2024-01-15T00:45:25;18.90;51.30
10062;DHT22;5070;52.382;5.270;2024-01-15T00:47:53;18.90;51.30
10062;DHT22;5070;52.382;5.270;2024-01-15T00:50:23;18.80;51.20
10062;DHT22;5070;52.382;5.270;2024-01-15T00:52:51;18.80;51.20
10062;DHT22;5070;52.382;5.270;2024-01-15T00:55:19;18.80;51.20
10062;DHT22;5070;52.382;5.270;2024-01-15T00:57:47;18.80;51.20
10062;DHT22;5070;52.382;5.270;2024-01-15T01:00:17;18.80;51.30
10062;DHT22;5070;52.382;5.270;2024-01-15T01:02:45;18.70;51.30
10062;DHT22;5070;52.382;5.270;2024-01-15T01:05:13;18.80;51.40
10062;DHT22;5070;52.382;5.270;2024-01-15T01:07:41;18.90;51.60
10062;DHT22;5070;52.382;5.270;2024-01-15T01:10:09;19.00;51.40
10062;DHT22;5070;52.382;5.270;2024-01-15T01:12:37;19.00;51.50
10062;DHT22;5070;52.382;5.270;2024-01-15T01:15:06;19.10;51.60
10062;DHT22;5070;52.382;5.270;2024-01-15T01:17:36;19.10;51.40
10062;DHT22;5070;52.382;5.270;2024-01-15T01:20:05;19.20;51.30
10062;DHT22;5070;52.382;5.270;2024-01-15T01:22:35;19.20;52.00
10062;DHT22;5070;52.382;5.270;2024-01-15T01:25:04;19.20;51.40
10062;DHT22;5070;52.382;5.270;2024-01-15T01:27:32;19.20;51.40
10062;DHT22;5070;52.382;5.270;2024-01-15T01:30:00;19.20;51.10
10062;DHT22;5070;52.382;5.270;2024-01-15T01:32:28;19.20;51.30
10062;DHT22;5070;52.382;5.270;2024-01-15T01:34:58;19.10;51.30
10062;DHT22;5070;52.382;5.270;2024-01-15T01:37:26;19.00;51.40
10062;DHT22;5070;52.382;5.270;2024-01-15T01:39:54;19.00;51.40
10062;DHT22;5070;52.382;5.270;2024-01-15T01:42:22;19.00;51.40
10062;DHT22;5070;52.382;5.270;2024-01-15T01:44:55;18.90;51.30
10062;DHT22;5070;52.382;5.270;2024-01-15T01:47:23;18.90;51.70
10062;DHT22;5070;52.382;5.270;2024-01-15T01:49:53;18.90;51.20
10062;DHT22;5070;52.382;5.270;2024-01-15T01:52:23;18.90;51.20
10062;DHT22;5070;52.382;5.270;2024-01-15T01:54:52;18.80;51.10
10062;DHT22;5070;52.382;5.270;2024-01-15T01:57:20;18.80;51.10
10062;DHT22;5070;52.382;5.270;2024-01-15T01:59:48;18.80;51.10
10062;DHT22;5070;52.382;5.270;2024-01-15T02:02:16;18.80;51.10
10062;DHT22;5070;52.382;5.270;2024-01-15T02:04:44;18.70;51.00
10062;DHT22;5070;52.382;5.270;2024-01-15T02:07:14;18.70;51.10
10062;DHT22;5070;52.382;5.270;2024-01-15T02:09:45;18.70;51.00
10062;DHT22;5070;52.382;5.270;2024-01-15T02:12:14;18.60;51.00
10062;DHT22;5070;52.382;5.270;2024-01-15T02:14:42;18.60;51.10
10062;DHT22;5070;52.382;5.270;2024-01-15T02:17:10;18.70;51.30
10062;DHT22;5070;52.382;5.270;2024-01-15T02:19:38;18.80;51.30
10062;DHT22;5070;52.382;5.270;2024-01-15T02:22:07;18.90;51.50
10062;DHT22;5070;52.382;5.270;2024-01-15T02:24:37;18.90;51.50
10062;DHT22;5070;52.382;5.270;2024-01-15T02:27:05;19.00;51.50
10062;DHT22;5070;52.382;5.270;2024-01-15T02:29:33;19.00;51.40
10062;DHT22;5070;52.382;5.270;2024-01-15T02:32:04;19.00;51.20
10062;DHT22;5070;52.382;5.270;2024-01-15T02:34:32;19.00;51.40
10062;DHT22;5070;52.382;5.270;2024-01-15T02:37:00;19.10;51.40
10062;DHT22;5070;52.382;5.270;2024-01-15T02:39:29;19.00;51.20
10062;DHT22;5070;52.382;5.270;2024-01-15T02:41:58;19.00;51.20
10062;DHT22;5070;52.382;5.270;2024-01-15T02:44:28;19.00;50.80
10062;DHT22;5070;52.382;5.270;2024-01-15T02:46:56;19.00;51.10
10062;DHT22;5070;52.382;5.270;2024-01-15T02:49:24;19.00;51.10
10062;DHT22;5070;52.382;5.270;2024-01-15T02:51:53;18.90;51.20
10062;DHT22;5070;52.382;5.270;2024-01-15T02:54:21;18.90;51.20
10062;DHT22;5070;52.382;5.270;2024-01-15T02:56:49;18.90;51.30
10062;DHT22;5070;52.382;5.270;2024-01-15T02:59:18;18.80;51.70
10062;DHT22;5070;52.382;5.270;2024-01-15T03:01:46;18.80;51.20
10062;DHT22;5070;52.382;5.270;2024-01-15T03:04:14;18.70;51.20
10062;DHT22;5070;52.382;5.270;2024-01-15T03:06:42;18.70;51.10
10062;DHT22;5070;52.382;5.270;2024-01-15T03:09:10;18.70;51.00
10062;DHT22;5070;52.382;5.270;2024-01-15T03:11:39;18.70;51.00
10062;DHT22;5070;52.382;5.270;2024-01-15T03:14:07;18.70;51.00
10062;DHT22;5070;52.382;5.270;2024-01-15T03:16:36;18.60;50.90
10062;DHT22;5070;52.382;5.270;2024-01-15T03:19:04;18.60;51.00
10062;DHT22;5070;52.382;5.270;2024-01-15T03:21:32;18.60;51.00
10062;DHT22;5070;52.382;5.270;2024-01-15T03:24:00;18.50;51.10
10062;DHT22;5070;52.382;5.270;2024-01-15T03:26:28;18.50;51.10
10062;DHT22;5070;52.382;5.270;2024-01-15T03:28:56;18.50;51.20
10062;DHT22;5070;52.382;5.270;2024-01-15T03:31:24;18.60;51.20
10062;DHT22;5070;52.382;5.270;2024-01-15T03:33:53;18.70;51.50
10062;DHT22;5070;52.382;5.270;2024-01-15T03:36:21;18.80;51.40
10062;DHT22;5070;52.382;5.270;2024-01-15T03:38:49;18.90;51.50
10062;DHT22;5070;52.382;5.270;2024-01-15T03:41:17;18.90;51.30
10062;DHT22;5070;52.382;5.270;2024-01-15T03:43:45;18.90;51.20
10062;DHT22;5070;52.382;5.270;2024-01-15T03:46:13;18.90;51.10
10062;DHT22;5070;52.382;5.270;2024-01-15T03:48:41;19.00;51.20
10062;DHT22;5070;52.382;5.270;2024-01-15T03:51:11;19.00;51.30
10062;DHT22;5070;52.382;5.270;2024-01-15T03:53:39;19.00;51.40
10062;DHT22;5070;52.382;5.270;2024-01-15T03:56:07;19.00;51.40
10062;DHT22;5070;52.382;5.270;2024-01-15T03:58:35;19.00;51.00
10062;DHT22;5070;52.382;5.270;2024-01-15T04:01:03;18.90;50.90
10062;DHT22;5070;52.382;5.270;2024-01-15T04:03:31;18.90;51.10
10062;DHT22;5070;52.382;5.270;2024-01-15T04:05:59;18.90;51.20
10062;DHT22;5070;52.382;5.270;2024-01-15T04:08:28;18.80;51.30
10062;DHT22;5070;52.382;5.270;2024-01-15T04:10:56;18.80;51.20
10062;DHT22;5070;52.382;5.270;2024-01-15T04:13:25;18.70;51.20
10062;DHT22;5070;52.382;5.270;2024-01-15T04:15:52;18.70;51.20
10062;DHT22;5070;52.382;5.270;2024-01-15T04:18:21;18.70;51.10
10062;DHT22;5070;52.382;5.270;2024-01-15T04:20:49;18.60;51.10
10062;DHT22;5070;52.382;5.270;2024-01-15T04:23:17;18.60;51.10
10062;DHT22;5070;52.382;5.270;2024-01-15T04:25:46;18.60;51.10
10062;DHT22;5070;52.382;5.270;2024-01-15T04:28:14;18.60;51.00
10062;DHT22;5070;52.382;5.270;2024-01-15T04:30:42;18.50;51.00
10062;DHT22;5070;52.382;5.270;2024-01-15T04:33:10;18.50;51.00
10062;DHT22;5070;52.382;5.270;2024-01-15T04:35:38;18.50;51.00
10062;DHT22;5070;52.382;5.270;2024-01-15T04:38:06;18.50;51.00
10062;DHT22;5070;52.382;5.270;2024-01-15T04:40:36;18.50;51.60
10062;DHT22;5070;52.382;5.270;2024-01-15T04:43:05;18.50;51.10
10062;DHT22;5070;52.382;5.270;2024-01-15T04:45:33;18.60;51.40
10062;DHT22;5070;52.382;5.270;2024-01-15T04:48:01;18.70;51.40
10062;DHT22;5070;52.382;5.270;2024-01-15T04:50:30;18.70;51.40
10062;DHT22;5070;52.382;5.270;2024-01-15T04:52:58;18.70;51.30
10062;DHT22;5070;52.382;5.270;2024-01-15T04:55:25;18.80;51.20
10062;DHT22;5070;52.382;5.270;2024-01-15T04:57:54;18.80;51.20
10062;DHT22;5070;52.382;5.270;2024-01-15T05:00:23;18.80;51.10
10062;DHT22;5070;52.382;5.270;2024-01-15T05:02:51;18.80;51.20
10062;DHT22;5070;52.382;5.270;2024-01-15T05:05:19;18.80;51.20
10062;DHT22;5070;52.382;5.270;2024-01-15T05:07:47;18.80;51.20
10062;DHT22;5070;52.382;5.270;2024-01-15T05:10:15;18.80;51.20
10062;DHT22;5070;52.382;5.270;2024-01-15T05:12:43;18.80;50.80
10062;DHT22;5070;52.382;5.270;2024-01-15T05:15:11;18.80;51.00
10062;DHT22;5070;52.382;5.270;2024-01-15T05:17:40;18.70;51.00
10062;DHT22;5070;52.382;5.270;2024-01-15T05:20:09;18.70;51.10
10062;DHT22;5070;52.382;5.270;2024-01-15T05:22:38;18.70;51.20
10062;DHT22;5070;52.382;5.270;2024-01-15T05:25:06;18.60;51.20
10062;DHT22;5070;52.382;5.270;2024-01-15T05:27:34;18.60;51.10
10062;DHT22;5070;52.382;5.270;2024-01-15T05:30:02;18.60;51.20
10062;DHT22;5070;52.382;5.270;2024-01-15T05:32:31;18.60;51.20
10062;DHT22;5070;52.382;5.270;2024-01-15T05:35:00;18.50;51.20
10062;DHT22;5070;52.382;5.270;2024-01-15T05:37:28;18.50;51.10
10062;DHT22;5070;52.382;5.270;2024-01-15T05:39:56;18.40;51.80
10062;DHT22;5070;52.382;5.270;2024-01-15T05:42:25;18.40;51.50
10062;DHT22;5070;52.382;5.270;2024-01-15T05:44:53;18.40;51.40
10062;DHT22;5070;52.382;5.270;2024-01-15T05:47:21;18.50;52.70
10062;DHT22;5070;52.382;5.270;2024-01-15T05:49:49;18.50;53.20
10062;DHT22;5070;52.382;5.270;2024-01-15T05:52:19;18.60;52.30
10062;DHT22;5070;52.382;5.270;2024-01-15T05:54:47;18.60;52.00
10062;DHT22;5070;52.382;5.270;2024-01-15T05:57:16;18.70;51.80
10062;DHT22;5070;52.382;5.270;2024-01-15T05:59:44;18.70;51.60
10062;DHT22;5070;52.382;5.270;2024-01-15T06:02:12;18.80;51.70
10062;DHT22;5070;52.382;5.270;2024-01-15T06:04:41;18.80;51.70
10062;DHT22;5070;52.382;5.270;2024-01-15T06:07:09;18.80;52.40
10062;DHT22;5070;52.382;5.270;2024-01-15T06:09:38;18.80;51.90
10062;DHT22;5070;52.382;5.270;2024-01-15T06:12:07;18.70;52.00
10062;DHT22;5070;52.382;5.270;2024-01-15T06:14:35;18.80;52.10
10062;DHT22;5070;52.382;5.270;2024-01-15T06:17:04;18.80;51.90
10062;DHT22;5070;52.382;5.270;2024-01-15T06:19:32;18.80;51.70
10062;DHT22;5070;52.382;5.270;2024-01-15T06:22:00;18.90;51.80
10062;DHT22;5070;52.382;5.270;2024-01-15T06:24:28;18.90;52.10
10062;DHT22;5070;52.382;5.270;2024-01-15T06:26:58;19.00;52.40
10062;DHT22;5070;52.382;5.270;2024-01-15T06:29:26;19.00;52.30
10062;DHT22;5070;52.382;5.270;2024-01-15T06:31:54;19.10;52.00
10062;DHT22;5070;52.382;5.270;2024-01-15T06:34:22;19.10;51.80
10062;DHT22;5070;52.382;5.270;2024-01-15T06:36:50;19.10;51.60
10062;DHT22;5070;52.382;5.270;2024-01-15T06:39:19;19.20;52.00
10062;DHT22;5070;52.382;5.270;2024-01-15T06:41:47;19.30;51.40
10062;DHT22;5070;52.382;5.270;2024-01-15T06:44:17;19.30;51.30
10062;DHT22;5070;52.382;5.270;2024-01-15T06:46:48;19.40;51.20
10062;DHT22;5070;52.382;5.270;2024-01-15T06:49:16;19.40;51.20
10062;DHT22;5070;52.382;5.270;2024-01-15T06:51:44;19.40;51.20
10062;DHT22;5070;52.382;5.270;2024-01-15T06:54:15;19.30;51.20
10062;DHT22;5070;52.382;5.270;2024-01-15T06:56:43;19.30;51.20
10062;DHT22;5070;52.382;5.270;2024-01-15T06:59:11;19.40;51.30
10062;DHT22;5070;52.382;5.270;2024-01-15T07:01:44;19.40;51.20
10062;DHT22;5070;52.382;5.270;2024-01-15T07:04:12;19.40;51.10
10062;DHT22;5070;52.382;5.270;2024-01-15T07:06:41;19.50;51.10
10062;DHT22;5070;52.382;5.270;2024-01-15T07:09:09;19.50;50.90
10062;DHT22;5070;52.382;5.270;2024-01-15T07:11:37;19.50;50.90
10062;DHT22;5070;52.382;5.270;2024-01-15T07:14:05;19.50;50.90
10062;DHT22;5070;52.382;5.270;2024-01-15T07:16:33;19.60;50.80
10062;DHT22;5070;52.382;5.270;2024-01-15T07:19:06;19.60;50.70
10062;DHT22;5070;52.382;5.270;2024-01-15T07:21:34;19.60;51.20
10062;DHT22;5070;52.382;5.270;2024-01-15T07:24:02;19.60;50.60
10062;DHT22;5070;52.382;5.270;2024-01-15T07:26:30;19.70;50.60
10062;DHT22;5070;52.382;5.270;2024-01-15T07:28:58;19.70;50.50
10062;DHT22;5070;52.382;5.270;2024-01-15T07:31:27;19.70;50.50
10062;DHT22;5070;52.382;5.270;2024-01-15T07:33:55;19.70;50.50
10062;DHT22;5070;52.382;5.270;2024-01-15T07:36:24;19.70;50.40
10062;DHT22;5070;52.382;5.270;2024-01-15T07:38:52;19.70;50.40
10062;DHT22;5070;52.382;5.270;2024-01-15T07:41:20;19.80;50.30
10062;DHT22;5070;52.382;5.270;2024-01-15T07:43:48;19.80;50.30
10062;DHT22;5070;52.382;5.270;2024-01-15T07:46:16;19.80;50.20
10062;DHT22;5070;52.382;5.270;2024-01-15T07:48:44;19.90;50.20
10062;DHT22;5070;52.382;5.270;2024-01-15T07:51:12;19.90;50.10
10062;DHT22;5070;52.382;5.270;2024-01-15T07:53:42;19.90;50.10
10062;DHT22;5070;52.382;5.270;2024-01-15T07:56:10;19.90;50.00
10062;DHT22;5070;52.382;5.270;2024-01-15T07:58:38;19.90;50.00
10062;DHT22;5070;52.382;5.270;2024-01-15T08:01:06;20.00;50.00
10062;DHT22;5070;52.382;5.270;2024-01-15T08:03:34;20.00;50.00
10062;DHT22;5070;52.382;5.270;2024-01-15T08:06:02;20.00;49.90
10062;DHT22;5070;52.382;5.270;2024-01-15T08:08:30;20.00;49.90
10062;DHT22;5070;52.382;5.270;2024-01-15T08:11:00;20.00;49.90
10062;DHT22;5070;52.382;5.270;2024-01-15T08:13:28;20.00;49.90
10062;DHT22;5070;52.382;5.270;2024-01-15T08:15:56;20.00;49.80
10062;DHT22;5070;52.382;5.270;2024-01-15T08:18:24;20.00;49.80
10062;DHT22;5070;52.382;5.270;2024-01-15T08:20:52;20.10;49.80
10062;DHT22;5070;52.382;5.270;2024-01-15T08:23:20;20.00;49.90
10062;DHT22;5070;52.382;5.270;2024-01-15T08:25:48;20.00;50.00
10062;DHT22;5070;52.382;5.270;2024-01-15T08:28:18;19.90;50.00
10062;DHT22;5070;52.382;5.270;2024-01-15T08:30:46;19.90;50.10
10062;DHT22;5070;52.382;5.270;2024-01-15T08:33:17;19.90;50.20
10062;DHT22;5070;52.382;5.270;2024-01-15T08:35:48;19.80;50.10
10062;DHT22;5070;52.382;5.270;2024-01-15T08:38:16;19.80;50.20
10062;DHT22;5070;52.382;5.270;2024-01-15T08:40:44;19.70;50.30
10062;DHT22;5070;52.382;5.270;2024-01-15T08:43:12;19.70;50.40
10062;DHT22;5070;52.382;5.270;2024-01-15T08:45:41;19.70;50.40
10062;DHT22;5070;52.382;5.270;2024-01-15T08:48:09;19.60;50.40
10062;DHT22;5070;52.382;5.270;2024-01-15T08:50:37;19.60;50.50
10062;DHT22;5070;52.382;5.270;2024-01-15T08:53:05;19.50;50.40
10062;DHT22;5070;52.382;5.270;2024-01-15T08:55:33;19.50;50.40
10062;DHT22;5070;52.382;5.270;2024-01-15T08:58:01;19.40;50.40
10062;DHT22;5070;52.382;5.270;2024-01-15T09:00:30;19.40;50.50
10062;DHT22;5070;52.382;5.270;2024-01-15T09:02:59;19.30;50.40
10062;DHT22;5070;52.382;5.270;2024-01-15T09:05:27;19.30;50.50
10062;DHT22;5070;52.382;5.270;2024-01-15T09:07:55;19.30;50.50
10062;DHT22;5070;52.382;5.270;2024-01-15T09:10:24;19.20;50.50
10062;DHT22;5070;52.382;5.270;2024-01-15T09:12:52;19.20;50.40
10062;DHT22;5070;52.382;5.270;2024-01-15T09:15:20;19.20;51.00
10062;DHT22;5070;52.382;5.270;2024-01-15T09:17:48;19.10;50.50
10062;DHT22;5070;52.382;5.270;2024-01-15T09:20:17;19.10;50.50
10062;DHT22;5070;52.382;5.270;2024-01-15T09:22:45;19.10;50.50
10062;DHT22;5070;52.382;5.270;2024-01-15T09:25:14;19.00;50.50
10062;DHT22;5070;52.382;5.270;2024-01-15T09:27:42;19.00;50.50
10062;DHT22;5070;52.382;5.270;2024-01-15T09:30:10;19.00;50.50
10062;DHT22;5070;52.382;5.270;2024-01-15T09:32:39;18.90;50.50
10062;DHT22;5070;52.382;5.270;2024-01-15T09:35:07;18.90;50.50
10062;DHT22;5070;52.382;5.270;2024-01-15T09:37:37;18.90;50.60
10062;DHT22;5070;52.382;5.270;2024-01-15T09:40:14;18.90;50.50
10062;DHT22;5070;52.382;5.270;2024-01-15T09:42:43;18.80;50.50
10062;DHT22;5070;52.382;5.270;2024-01-15T09:45:13;18.80;50.50
10062;DHT22;5070;52.382;5.270;2024-01-15T09:47:42;18.80;50.70
10062;DHT22;5070;52.382;5.270;2024-01-15T09:50:13;18.80;50.60
10062;DHT22;5070;52.382;5.270;2024-01-15T09:52:43;18.80;50.70
10062;DHT22;5070;52.382;5.270;2024-01-15T09:55:11;18.80;50.70
10062;DHT22;5070;52.382;5.270;2024-01-15T09:57:41;18.80;50.80
10062;DHT22;5070;52.382;5.270;2024-01-15T10:00:09;18.80;50.70
10062;DHT22;5070;52.382;5.270;2024-01-15T10:02:38;18.70;50.70
10062;DHT22;5070;52.382;5.270;2024-01-15T10:05:07;18.70;50.70
10062;DHT22;5070;52.382;5.270;2024-01-15T10:07:37;18.60;50.70
10062;DHT22;5070;52.382;5.270;2024-01-15T10:10:07;18.60;50.60
10062;DHT22;5070;52.382;5.270;2024-01-15T10:12:36;18.60;50.60
10062;DHT22;5070;52.382;5.270;2024-01-15T10:15:05;18.50;50.60
10062;DHT22;5070;52.382;5.270;2024-01-15T10:17:33;18.50;50.60
10062;DHT22;5070;52.382;5.270;2024-01-15T10:20:08;18.50;50.60
10062;DHT22;5070;52.382;5.270;2024-01-15T10:22:42;18.50;50.60
10062;DHT22;5070;52.382;5.270;2024-01-15T10:25:12;18.50;50.60
10062;DHT22;5070;52.382;5.270;2024-01-15T10:27:40;18.50;50.60
10062;DHT22;5070;52.382;5.270;2024-01-15T10:30:10;18.40;50.60
10062;DHT22;5070;52.382;5.270;2024-01-15T10:32:40;18.40;50.50
10062;DHT22;5070;52.382;5.270;2024-01-15T10:35:08;18.40;50.60
10062;DHT22;5070;52.382;5.270;2024-01-15T10:37:37;18.40;50.60
10062;DHT22;5070;52.382;5.270;2024-01-15T10:40:05;18.40;50.80
10062;DHT22;5070;52.382;5.270;2024-01-15T10:42:35;18.50;50.60
10062;DHT22;5070;52.382;5.270;2024-01-15T10:45:03;18.60;51.30
10062;DHT22;5070;52.382;5.270;2024-01-15T10:47:32;18.60;51.40
10062;DHT22;5070;52.382;5.270;2024-01-15T10:50:04;18.70;50.90
10062;DHT22;5070;52.382;5.270;2024-01-15T10:52:34;18.70;50.60
10062;DHT22;5070;52.382;5.270;2024-01-15T10:55:03;18.80;50.50
10062;DHT22;5070;52.382;5.270;2024-01-15T10:57:40;18.80;50.50
10062;DHT22;5070;52.382;5.270;2024-01-15T11:00:09;18.80;50.60
10062;DHT22;5070;52.382;5.270;2024-01-15T11:02:41;18.90;50.60
10062;DHT22;5070;52.382;5.270;2024-01-15T11:05:11;18.80;50.70
10062;DHT22;5070;52.382;5.270;2024-01-15T11:07:40;18.80;50.80
10062;DHT22;5070;52.382;5.270;2024-01-15T11:10:38;18.80;51.00
10062;DHT22;5070;52.382;5.270;2024-01-15T11:13:14;18.80;50.30
10062;DHT22;5070;52.382;5.270;2024-01-15T11:15:55;18.80;50.30
10062;DHT22;5070;52.382;5.270;2024-01-15T11:18:23;18.80;50.70
10062;DHT22;5070;52.382;5.270;2024-01-15T11:21:19;18.80;50.70
10062;DHT22;5070;52.382;5.270;2024-01-15T11:23:51;18.70;50.70
10062;DHT22;5070;52.382;5.270;2024-01-15T11:26:34;18.70;50.90
10062;DHT22;5070;52.382;5.270;2024-01-15T11:29:05;18.70;50.90
10062;DHT22;5070;52.382;5.270;2024-01-15T11:31:59;18.70;51.00
10062;DHT22;5070;52.382;5.270;2024-01-15T11:34:50;18.60;50.90
10062;DHT22;5070;52.382;5.270;2024-01-15T11:37:20;18.60;51.00
10062;DHT22;5070;52.382;5.270;2024-01-15T11:39:52;18.60;51.00
10062;DHT22;5070;52.382;5.270;2024-01-15T11:42:21;18.60;51.00
10062;DHT22;5070;52.382;5.270;2024-01-15T11:44:52;18.50;51.00
10062;DHT22;5070;52.382;5.270;2024-01-15T11:47:47;18.50;51.00
10062;DHT22;5070;52.382;5.270;2024-01-15T11:50:21;18.50;51.00
10062;DHT22;5070;52.382;5.270;2024-01-15T11:52:56;18.40;50.90
10062;DHT22;5070;52.382;5.270;2024-01-15T11:55:30;18.40;50.90
10062;DHT22;5070;52.382;5.270;2024-01-15T11:58:01;18.40;50.90
10062;DHT22;5070;52.382;5.270;2024-01-15T12:00:31;18.40;50.90
10062;DHT22;5070;52.382;5.270;2024-01-15T12:02:59;18.40;50.90
10062;DHT22;5070;52.382;5.270;2024-01-15T12:05:28;18.30;50.90
10062;DHT22;5070;52.382;5.270;2024-01-15T12:07:57;18.30;50.90
10062;DHT22;5070;52.382;5.270;2024-01-15T12:10:25;18.30;50.90
10062;DHT22;5070;52.382;5.270;2024-01-15T12:12:58;18.30;50.90
10062;DHT22;5070;52.382;5.270;2024-01-15T12:15:27;18.30;50.90
10062;DHT22;5070;52.382;5.270;2024-01-15T12:17:58;18.30;50.90
10062;DHT22;5070;52.382;5.270;2024-01-15T12:20:28;18.30;51.00
10062;DHT22;5070;52.382;5.270;2024-01-15T12:22:57;18.30;51.10
10062;DHT22;5070;52.382;5.270;2024-01-15T12:25:30;18.40;51.90
10062;DHT22;5070;52.382;5.270;2024-01-15T12:27:59;18.40;52.00
10062;DHT22;5070;52.382;5.270;2024-01-15T12:30:28;18.50;52.10
10062;DHT22;5070;52.382;5.270;2024-01-15T12:33:01;18.50;51.30
10062;DHT22;5070;52.382;5.270;2024-01-15T12:35:30;18.60;51.10
10062;DHT22;5070;52.382;5.270;2024-01-15T12:38:00;18.70;50.90
10062;DHT22;5070;52.382;5.270;2024-01-15T12:40:30;18.70;50.70
10062;DHT22;5070;52.382;5.270;2024-01-15T12:42:58;18.80;50.60
10062;DHT22;5070;52.382;5.270;2024-01-15T12:45:26;18.80;50.70
10062;DHT22;5070;52.382;5.270;2024-01-15T12:47:54;18.80;50.90
10062;DHT22;5070;52.382;5.270;2024-01-15T12:50:25;18.80;51.00
10062;DHT22;5070;52.382;5.270;2024-01-15T12:52:55;18.70;51.20
10062;DHT22;5070;52.382;5.270;2024-01-15T12:55:23;18.70;51.60
10062;DHT22;5070;52.382;5.270;2024-01-15T12:57:51;18.70;51.60
10062;DHT22;5070;52.382;5.270;2024-01-15T13:00:21;18.70;50.80
10062;DHT22;5070;52.382;5.270;2024-01-15T13:02:49;18.60;51.00
10062;DHT22;5070;52.382;5.270;2024-01-15T13:05:19;18.60;50.80
10062;DHT22;5070;52.382;5.270;2024-01-15T13:07:49;18.60;51.60
10062;DHT22;5070;52.382;5.270;2024-01-15T13:10:17;18.70;51.20
10062;DHT22;5070;52.382;5.270;2024-01-15T13:12:45;18.70;50.60
10062;DHT22;5070;52.382;5.270;2024-01-15T13:15:13;18.80;50.50
10062;DHT22;5070;52.382;5.270;2024-01-15T13:17:41;18.90;51.00
10062;DHT22;5070;52.382;5.270;2024-01-15T13:20:11;18.90;50.40
10062;DHT22;5070;52.382;5.270;2024-01-15T13:22:40;18.90;50.40
10062;DHT22;5070;52.382;5.270;2024-01-15T13:25:12;18.90;50.40
10062;DHT22;5070;52.382;5.270;2024-01-15T13:27:40;19.00;50.40
10062;DHT22;5070;52.382;5.270;2024-01-15T13:30:10;19.20;62.00
10062;DHT22;5070;52.382;5.270;2024-01-15T13:32:39;19.20;55.60
10062;DHT22;5070;52.382;5.270;2024-01-15T13:35:08;19.30;54.20
10062;DHT22;5070;52.382;5.270;2024-01-15T13:37:39;19.30;53.50
10062;DHT22;5070;52.382;5.270;2024-01-15T13:40:09;19.30;52.80
10062;DHT22;5070;52.382;5.270;2024-01-15T13:42:45;19.30;52.40
10062;DHT22;5070;52.382;5.270;2024-01-15T13:45:14;19.40;52.20
10062;DHT22;5070;52.382;5.270;2024-01-15T13:47:43;19.40;52.10
10062;DHT22;5070;52.382;5.270;2024-01-15T13:50:11;19.40;51.90
10062;DHT22;5070;52.382;5.270;2024-01-15T13:52:39;19.40;51.60
10062;DHT22;5070;52.382;5.270;2024-01-15T13:55:08;19.50;51.60
10062;DHT22;5070;52.382;5.270;2024-01-15T13:57:36;19.50;51.60
10062;DHT22;5070;52.382;5.270;2024-01-15T14:00:07;19.50;51.40
10062;DHT22;5070;52.382;5.270;2024-01-15T14:02:36;19.60;51.30
10062;DHT22;5070;52.382;5.270;2024-01-15T14:05:04;19.60;51.10
10062;DHT22;5070;52.382;5.270;2024-01-15T14:07:34;19.60;51.10
10062;DHT22;5070;52.382;5.270;2024-01-15T14:10:02;19.60;51.10
10062;DHT22;5070;52.382;5.270;2024-01-15T14:12:30;19.60;51.10
10062;DHT22;5070;52.382;5.270;2024-01-15T14:14:59;19.70;51.20
10062;DHT22;5070;52.382;5.270;2024-01-15T14:17:28;19.70;51.10
10062;DHT22;5070;52.382;5.270;2024-01-15T14:19:57;19.70;51.20
10062;DHT22;5070;52.382;5.270;2024-01-15T14:22:25;19.80;51.20
10062;DHT22;5070;52.382;5.270;2024-01-15T14:24:53;19.90;51.20
10062;DHT22;5070;52.382;5.270;2024-01-15T14:27:21;19.90;51.20
10062;DHT22;5070;52.382;5.270;2024-01-15T14:29:49;19.90;51.20
10062;DHT22;5070;52.382;5.270;2024-01-15T14:32:17;20.00;51.10
10062;DHT22;5070;52.382;5.270;2024-01-15T14:34:46;20.00;51.10
10062;DHT22;5070;52.382;5.270;2024-01-15T14:37:15;20.10;51.10
10062;DHT22;5070;52.382;5.270;2024-01-15T14:39:45;20.10;51.00
10062;DHT22;5070;52.382;5.270;2024-01-15T14:42:13;20.10;51.00
10062;DHT22;5070;52.382;5.270;2024-01-15T14:44:41;20.20;51.00
10062;DHT22;5070;52.382;5.270;2024-01-15T14:47:09;20.20;51.00
10062;DHT22;5070;52.382;5.270;2024-01-15T14:49:37;20.20;51.00
10062;DHT22;5070;52.382;5.270;2024-01-15T14:52:06;20.20;50.90
10062;DHT22;5070;52.382;5.270;2024-01-15T14:54:34;20.10;50.90
10062;DHT22;5070;52.382;5.270;2024-01-15T14:57:03;20.10;51.10
10062;DHT22;5070;52.382;5.270;2024-01-15T14:59:31;20.10;51.20
10062;DHT22;5070;52.382;5.270;2024-01-15T15:01:59;20.00;51.20
10062;DHT22;5070;52.382;5.270;2024-01-15T15:04:27;20.10;51.10
10062;DHT22;5070;52.382;5.270;2024-01-15T15:06:56;20.10;51.00
10062;DHT22;5070;52.382;5.270;2024-01-15T15:09:26;20.10;50.80
10062;DHT22;5070;52.382;5.270;2024-01-15T15:11:54;20.10;51.20
10062;DHT22;5070;52.382;5.270;2024-01-15T15:14:22;20.20;50.60
10062;DHT22;5070;52.382;5.270;2024-01-15T15:16:50;20.20;50.40
10062;DHT22;5070;52.382;5.270;2024-01-15T15:19:19;20.30;50.40
10062;DHT22;5070;52.382;5.270;2024-01-15T15:21:48;20.20;50.30
10062;DHT22;5070;52.382;5.270;2024-01-15T15:24:16;20.30;50.30
10062;DHT22;5070;52.382;5.270;2024-01-15T15:26:45;20.30;50.20
10062;DHT22;5070;52.382;5.270;2024-01-15T15:29:13;20.30;50.20
10062;DHT22;5070;52.382;5.270;2024-01-15T15:31:44;20.30;50.10
10062;DHT22;5070;52.382;5.270;2024-01-15T15:34:12;20.30;50.10
10062;DHT22;5070;52.382;5.270;2024-01-15T15:36:40;20.30;50.10
10062;DHT22;5070;52.382;5.270;2024-01-15T15:39:08;20.30;50.00
10062;DHT22;5070;52.382;5.270;2024-01-15T15:41:36;20.40;50.10
10062;DHT22;5070;52.382;5.270;2024-01-15T15:44:06;20.40;50.10
10062;DHT22;5070;52.382;5.270;2024-01-15T15:46:35;20.40;50.10
10062;DHT22;5070;52.382;5.270;2024-01-15T15:49:03;20.40;50.10
10062;DHT22;5070;52.382;5.270;2024-01-15T15:51:33;20.40;50.10
10062;DHT22;5070;52.382;5.270;2024-01-15T15:54:02;20.40;50.10
10062;DHT22;5070;52.382;5.270;2024-01-15T15:56:32;20.50;50.10